Airfield :
LOGIN :

Register | Disclaimer

   EN    FR    IT 

 










Legend :    VFR   Marginal VFR   IFR   Intensive IFR   Very Intensive IFR
Visi :
Ceiling :
>= 8 km
>= 3000ft
5 to 8 km
1000 to 3000 ft
1500m to 5 km
500 to 1000 ft
800 to 1500m
200 to 500 ft
< 800m
< 200 ft
Symbols :   Thunderstorms  Fog  Heavy snow  Heavy precipitations  Wind > 20 kt
SIGMETs :     Misc.  Thunderstorms  Icing  Turbulence  Mountain Waves  Volcanic Ashes






- Airport Elevation : 157 ft
- IATA code : SXF


EDDB - Berlin Schönefeld

CURRENT METAR :
  • 191520Z 21011KT 9999 -DZ BKN008 01/01 Q1004 R88/CLRD// NOSIG

EXPIRED METARs :
  • 191450Z 20011KT 9999 -DZ BKN007 01/00 Q1004 R88/D NOSIG
  • 191420Z 20011KT 9999 -DZ BKN006 01/00 Q1004 R25R/691593 NOSIG
  • 191350Z 19012KT 7000 -SN BKN005 01/00 Q1005 RESN R25R/691593 NOSIG
  • 191320Z 19011KT 3000 SN BKN005 00/00 Q1005 TEMPO -SN
  • 191250Z 19010KT 160V220 1700 SN BKN004 00/00 Q1005 BECMG 3000 -SN BKN005
  • 191220Z 19011KT 1200 R25R/1900N R07R/P2000N SN BKN004 00/00 Q1006 NOSIG

TAF TAF EDDB
Valid from the 19 at 12:00 until the 20 at 12:00 UTC


191100Z 1912/2012 21012KT 9999 BKN020
BECMG 1912/1915 BKN012
TEMPO 1912/1924 4000 -RADZ BKN007
PROB40
TEMPO 1912/1916 19015G25KT 1400 SNRA OVC004
PROB40
TEMPO 1916/1924 2000 RADZ BKN004
PROB30
TEMPO 1921/2012 21015G25KT
BECMG 2000/2003 SCT040



MET'MAP, your aeronautical weather chart ! - Copyright ORBIFLY December 2007 - Disclaimer

ORBIFLY MET'MAP TEAM :

Programming & Development : Alexandra Zaïnal
Concept & original design : Baudouin d'Aumeries
Assistance for programming : Marc-Olivier Méhu
Technical & hardware support : Manuel Goepfert

Contact : metmap@orbifly.com




SOURCES & CREDITS :

   NOAA